sensor_id;sensor_type;location;lat;lon;timestamp;P1;durP1;ratioP1;P2;durP2;ratioP2
7929;SDS011;4010;42.698;23.124;2023-12-20T00:02:15;19.83;;;6.50;;
7929;SDS011;4010;42.698;23.124;2023-12-20T00:04:42;13.55;;;6.28;;
7929;SDS011;4010;42.698;23.124;2023-12-20T00:07:08;11.00;;;5.63;;
7929;SDS011;4010;42.698;23.124;2023-12-20T00:09:35;10.98;;;5.22;;
7929;SDS011;4010;42.698;23.124;2023-12-20T00:12:02;8.93;;;5.22;;
7929;SDS011;4010;42.698;23.124;2023-12-20T00:14:29;8.10;;;4.95;;
7929;SDS011;4010;42.698;23.124;2023-12-20T00:16:57;10.65;;;5.68;;
7929;SDS011;4010;42.698;23.124;2023-12-20T00:19:24;8.65;;;6.07;;
7929;SDS011;4010;42.698;23.124;2023-12-20T00:21:50;7.90;;;5.35;;
7929;SDS011;4010;42.698;23.124;2023-12-20T00:24:17;16.85;;;6.03;;
7929;SDS011;4010;42.698;23.124;2023-12-20T00:26:44;11.32;;;6.68;;
7929;SDS011;4010;42.698;23.124;2023-12-20T00:29:10;13.40;;;6.18;;
7929;SDS011;4010;42.698;23.124;2023-12-20T00:31:37;11.60;;;6.70;;
7929;SDS011;4010;42.698;23.124;2023-12-20T00:34:05;10.32;;;6.30;;
7929;SDS011;4010;42.698;23.124;2023-12-20T00:36:32;9.80;;;6.63;;
7929;SDS011;4010;42.698;23.124;2023-12-20T00:38:59;9.35;;;5.70;;
7929;SDS011;4010;42.698;23.124;2023-12-20T00:41:25;13.15;;;6.97;;
7929;SDS011;4010;42.698;23.124;2023-12-20T00:43:52;10.07;;;6.25;;
7929;SDS011;4010;42.698;23.124;2023-12-20T00:46:19;11.30;;;5.97;;
7929;SDS011;4010;42.698;23.124;2023-12-20T00:48:45;11.75;;;6.15;;
7929;SDS011;4010;42.698;23.124;2023-12-20T00:51:13;11.43;;;6.68;;
7929;SDS011;4010;42.698;23.124;2023-12-20T00:53:40;10.80;;;6.30;;
7929;SDS011;4010;42.698;23.124;2023-12-20T00:56:08;10.30;;;6.68;;
7929;SDS011;4010;42.698;23.124;2023-12-20T00:58:35;12.80;;;7.05;;
7929;SDS011;4010;42.698;23.124;2023-12-20T01:01:01;13.27;;;6.90;;
7929;SDS011;4010;42.698;23.124;2023-12-20T01:03:28;14.95;;;6.75;;
7929;SDS011;4010;42.698;23.124;2023-12-20T01:05:55;14.07;;;6.82;;
7929;SDS011;4010;42.698;23.124;2023-12-20T01:08:23;11.82;;;6.90;;
7929;SDS011;4010;42.698;23.124;2023-12-20T01:10:50;17.77;;;6.93;;
7929;SDS011;4010;42.698;23.124;2023-12-20T01:13:17;17.52;;;7.15;;
7929;SDS011;4010;42.698;23.124;2023-12-20T01:15:43;10.63;;;6.20;;
7929;SDS011;4010;42.698;23.124;2023-12-20T01:18:10;10.90;;;6.45;;
7929;SDS011;4010;42.698;23.124;2023-12-20T01:20:37;9.98;;;6.78;;
7929;SDS011;4010;42.698;23.124;2023-12-20T01:23:04;12.93;;;6.38;;
7929;SDS011;4010;42.698;23.124;2023-12-20T01:25:32;14.55;;;6.55;;
7929;SDS011;4010;42.698;23.124;2023-12-20T01:27:58;8.50;;;6.25;;
7929;SDS011;4010;42.698;23.124;2023-12-20T01:30:25;11.05;;;5.90;;
7929;SDS011;4010;42.698;23.124;2023-12-20T01:32:52;11.32;;;6.20;;
7929;SDS011;4010;42.698;23.124;2023-12-20T01:35:19;13.77;;;6.63;;
7929;SDS011;4010;42.698;23.124;2023-12-20T01:37:46;10.93;;;6.88;;
7929;SDS011;4010;42.698;23.124;2023-12-20T01:40:12;8.45;;;6.15;;
7929;SDS011;4010;42.698;23.124;2023-12-20T01:42:41;9.88;;;5.80;;
7929;SDS011;4010;42.698;23.124;2023-12-20T01:45:08;15.50;;;7.57;;
7929;SDS011;4010;42.698;23.124;2023-12-20T01:47:35;10.07;;;6.93;;
7929;SDS011;4010;42.698;23.124;2023-12-20T01:50:02;12.00;;;7.03;;
7929;SDS011;4010;42.698;23.124;2023-12-20T01:52:30;16.33;;;7.18;;
7929;SDS011;4010;42.698;23.124;2023-12-20T01:54:58;15.25;;;8.15;;
7929;SDS011;4010;42.698;23.124;2023-12-20T01:57:28;12.63;;;7.68;;
7929;SDS011;4010;42.698;23.124;2023-12-20T01:59:56;13.60;;;6.18;;
7929;SDS011;4010;42.698;23.124;2023-12-20T02:02:23;11.32;;;6.65;;
7929;SDS011;4010;42.698;23.124;2023-12-20T02:04:51;15.00;;;6.70;;
7929;SDS011;4010;42.698;23.124;2023-12-20T02:07:18;22.38;;;7.80;;
7929;SDS011;4010;42.698;23.124;2023-12-20T02:09:45;16.13;;;8.00;;
7929;SDS011;4010;42.698;23.124;2023-12-20T02:12:12;11.07;;;5.78;;
7929;SDS011;4010;42.698;23.124;2023-12-20T02:14:39;11.35;;;4.93;;
7929;SDS011;4010;42.698;23.124;2023-12-20T02:17:07;25.58;;;9.15;;
7929;SDS011;4010;42.698;23.124;2023-12-20T02:19:34;14.07;;;6.60;;
7929;SDS011;4010;42.698;23.124;2023-12-20T02:22:09;11.88;;;6.30;;
7929;SDS011;4010;42.698;23.124;2023-12-20T02:24:36;19.75;;;7.20;;
7929;SDS011;4010;42.698;23.124;2023-12-20T02:27:03;11.55;;;6.75;;
7929;SDS011;4010;42.698;23.124;2023-12-20T02:29:32;11.55;;;5.93;;
7929;SDS011;4010;42.698;23.124;2023-12-20T02:31:59;10.63;;;6.40;;
7929;SDS011;4010;42.698;23.124;2023-12-20T02:34:25;10.13;;;6.00;;
7929;SDS011;4010;42.698;23.124;2023-12-20T02:36:52;10.20;;;6.10;;
7929;SDS011;4010;42.698;23.124;2023-12-20T02:39:20;11.52;;;6.28;;
7929;SDS011;4010;42.698;23.124;2023-12-20T02:41:48;16.08;;;8.10;;
7929;SDS011;4010;42.698;23.124;2023-12-20T02:44:15;10.48;;;6.55;;
7929;SDS011;4010;42.698;23.124;2023-12-20T02:46:42;11.60;;;6.25;;
7929;SDS011;4010;42.698;23.124;2023-12-20T02:49:08;15.65;;;7.85;;
7929;SDS011;4010;42.698;23.124;2023-12-20T02:51:35;9.82;;;5.78;;
7929;SDS011;4010;42.698;23.124;2023-12-20T02:54:03;12.00;;;6.43;;
7929;SDS011;4010;42.698;23.124;2023-12-20T02:56:32;12.98;;;6.65;;
7929;SDS011;4010;42.698;23.124;2023-12-20T02:58:58;14.43;;;7.00;;
7929;SDS011;4010;42.698;23.124;2023-12-20T03:01:26;9.55;;;5.75;;
7929;SDS011;4010;42.698;23.124;2023-12-20T03:03:52;14.90;;;5.65;;
7929;SDS011;4010;42.698;23.124;2023-12-20T03:06:18;7.17;;;4.77;;
7929;SDS011;4010;42.698;23.124;2023-12-20T03:08:45;6.40;;;4.28;;
7929;SDS011;4010;42.698;23.124;2023-12-20T03:11:12;6.18;;;3.92;;
7929;SDS011;4010;42.698;23.124;2023-12-20T03:13:40;6.28;;;4.53;;
7929;SDS011;4010;42.698;23.124;2023-12-20T03:16:10;6.75;;;3.83;;
7929;SDS011;4010;42.698;23.124;2023-12-20T03:18:38;5.53;;;3.33;;
7929;SDS011;4010;42.698;23.124;2023-12-20T03:21:05;8.05;;;4.47;;
7929;SDS011;4010;42.698;23.124;2023-12-20T03:23:32;6.50;;;3.78;;
7929;SDS011;4010;42.698;23.124;2023-12-20T03:25:59;5.57;;;3.20;;
7929;SDS011;4010;42.698;23.124;2023-12-20T03:28:26;7.85;;;5.00;;
7929;SDS011;4010;42.698;23.124;2023-12-20T03:30:54;5.50;;;3.80;;
7929;SDS011;4010;42.698;23.124;2023-12-20T03:33:21;4.78;;;3.78;;
7929;SDS011;4010;42.698;23.124;2023-12-20T03:35:47;6.93;;;3.78;;
7929;SDS011;4010;42.698;23.124;2023-12-20T03:38:14;6.30;;;3.40;;
7929;SDS011;4010;42.698;23.124;2023-12-20T03:40:41;5.72;;;3.95;;
7929;SDS011;4010;42.698;23.124;2023-12-20T03:43:07;10.48;;;8.43;;
7929;SDS011;4010;42.698;23.124;2023-12-20T03:45:34;9.18;;;4.82;;
7929;SDS011;4010;42.698;23.124;2023-12-20T03:48:02;9.15;;;4.97;;
7929;SDS011;4010;42.698;23.124;2023-12-20T03:50:30;8.85;;;4.95;;
7929;SDS011;4010;42.698;23.124;2023-12-20T03:52:56;6.35;;;4.53;;
7929;SDS011;4010;42.698;23.124;2023-12-20T03:55:23;6.80;;;4.10;;
7929;SDS011;4010;42.698;23.124;2023-12-20T03:57:50;7.07;;;4.75;;
7929;SDS011;4010;42.698;23.124;2023-12-20T04:00:17;7.45;;;4.13;;
7929;SDS011;4010;42.698;23.124;2023-12-20T04:02:43;5.82;;;4.30;;
7929;SDS011;4010;42.698;23.124;2023-12-20T04:05:12;5.88;;;3.45;;
7929;SDS011;4010;42.698;23.124;2023-12-20T04:07:38;6.88;;;4.65;;
7929;SDS011;4010;42.698;23.124;2023-12-20T04:10:05;8.18;;;4.15;;
7929;SDS011;4010;42.698;23.124;2023-12-20T04:12:33;6.30;;;4.30;;
7929;SDS011;4010;42.698;23.124;2023-12-20T04:15:00;6.22;;;4.10;;
7929;SDS011;4010;42.698;23.124;2023-12-20T04:17:28;7.30;;;3.80;;
7929;SDS011;4010;42.698;23.124;2023-12-20T04:19:55;7.93;;;4.25;;
7929;SDS011;4010;42.698;23.124;2023-12-20T04:22:23;7.57;;;4.68;;
7929;SDS011;4010;42.698;23.124;2023-12-20T04:24:50;6.97;;;4.07;;
7929;SDS011;4010;42.698;23.124;2023-12-20T04:27:16;13.55;;;8.32;;
7929;SDS011;4010;42.698;23.124;2023-12-20T04:29:43;6.93;;;4.88;;
7929;SDS011;4010;42.698;23.124;2023-12-20T04:32:10;10.45;;;7.15;;
7929;SDS011;4010;42.698;23.124;2023-12-20T04:34:36;11.05;;;7.38;;
7929;SDS011;4010;42.698;23.124;2023-12-20T04:37:03;13.30;;;7.68;;
7929;SDS011;4010;42.698;23.124;2023-12-20T04:39:31;8.15;;;4.68;;
7929;SDS011;4010;42.698;23.124;2023-12-20T04:41:58;8.57;;;4.45;;
7929;SDS011;4010;42.698;23.124;2023-12-20T04:44:25;9.02;;;5.10;;
7929;SDS011;4010;42.698;23.124;2023-12-20T04:46:51;9.65;;;5.18;;
7929;SDS011;4010;42.698;23.124;2023-12-20T04:49:18;10.10;;;5.20;;
7929;SDS011;4010;42.698;23.124;2023-12-20T04:51:45;9.40;;;6.15;;
7929;SDS011;4010;42.698;23.124;2023-12-20T04:54:12;10.18;;;5.60;;
7929;SDS011;4010;42.698;23.124;2023-12-20T04:56:40;9.40;;;6.28;;
7929;SDS011;4010;42.698;23.124;2023-12-20T04:59:07;11.73;;;6.38;;
7929;SDS011;4010;42.698;23.124;2023-12-20T05:01:34;9.85;;;5.85;;
7929;SDS011;4010;42.698;23.124;2023-12-20T05:04:00;11.35;;;5.05;;
7929;SDS011;4010;42.698;23.124;2023-12-20T05:06:27;9.57;;;6.13;;
7929;SDS011;4010;42.698;23.124;2023-12-20T05:08:54;11.27;;;6.72;;
7929;SDS011;4010;42.698;23.124;2023-12-20T05:11:20;10.43;;;5.63;;
7929;SDS011;4010;42.698;23.124;2023-12-20T05:13:49;8.43;;;5.72;;
7929;SDS011;4010;42.698;23.124;2023-12-20T05:16:15;10.45;;;5.78;;
7929;SDS011;4010;42.698;23.124;2023-12-20T05:18:43;7.78;;;5.03;;
7929;SDS011;4010;42.698;23.124;2023-12-20T05:21:09;9.05;;;5.25;;
7929;SDS011;4010;42.698;23.124;2023-12-20T05:23:36;7.07;;;4.28;;
7929;SDS011;4010;42.698;23.124;2023-12-20T05:26:03;6.50;;;4.25;;
7929;SDS011;4010;42.698;23.124;2023-12-20T05:28:30;11.93;;;7.25;;
7929;SDS011;4010;42.698;23.124;2023-12-20T05:30:58;8.77;;;4.88;;
7929;SDS011;4010;42.698;23.124;2023-12-20T05:33:24;11.60;;;5.50;;
7929;SDS011;4010;42.698;23.124;2023-12-20T05:35:51;9.93;;;5.55;;
7929;SDS011;4010;42.698;23.124;2023-12-20T05:38:18;9.10;;;5.93;;
7929;SDS011;4010;42.698;23.124;2023-12-20T05:40:45;8.73;;;6.07;;
7929;SDS011;4010;42.698;23.124;2023-12-20T05:43:11;10.55;;;4.70;;
7929;SDS011;4010;42.698;23.124;2023-12-20T05:45:38;8.18;;;4.95;;
7929;SDS011;4010;42.698;23.124;2023-12-20T05:48:06;6.40;;;4.53;;
7929;SDS011;4010;42.698;23.124;2023-12-20T05:50:33;5.97;;;3.65;;
7929;SDS011;4010;42.698;23.124;2023-12-20T05:53:01;10.48;;;6.68;;
7929;SDS011;4010;42.698;23.124;2023-12-20T05:55:28;9.90;;;6.97;;
7929;SDS011;4010;42.698;23.124;2023-12-20T05:57:55;6.50;;;4.00;;
7929;SDS011;4010;42.698;23.124;2023-12-20T06:00:22;8.05;;;5.50;;
7929;SDS011;4010;42.698;23.124;2023-12-20T06:02:49;6.78;;;4.38;;
7929;SDS011;4010;42.698;23.124;2023-12-20T06:05:17;11.25;;;6.05;;
7929;SDS011;4010;42.698;23.124;2023-12-20T06:07:44;12.25;;;6.55;;
7929;SDS011;4010;42.698;23.124;2023-12-20T06:10:13;16.45;;;6.70;;
7929;SDS011;4010;42.698;23.124;2023-12-20T06:12:40;7.97;;;4.47;;
7929;SDS011;4010;42.698;23.124;2023-12-20T06:15:07;8.10;;;4.95;;
7929;SDS011;4010;42.698;23.124;2023-12-20T06:17:34;8.75;;;5.47;;
7929;SDS011;4010;42.698;23.124;2023-12-20T06:20:01;5.47;;;3.97;;
7929;SDS011;4010;42.698;23.124;2023-12-20T06:22:34;6.43;;;4.90;;
7929;SDS011;4010;42.698;23.124;2023-12-20T06:25:00;8.27;;;5.38;;
7929;SDS011;4010;42.698;23.124;2023-12-20T06:27:27;10.60;;;6.13;;
7929;SDS011;4010;42.698;23.124;2023-12-20T06:29:54;8.25;;;5.18;;
7929;SDS011;4010;42.698;23.124;2023-12-20T06:32:22;7.38;;;5.03;;
7929;SDS011;4010;42.698;23.124;2023-12-20T06:34:49;8.77;;;5.90;;
7929;SDS011;4010;42.698;23.124;2023-12-20T06:37:16;11.88;;;6.75;;
7929;SDS011;4010;42.698;23.124;2023-12-20T06:39:44;6.53;;;5.40;;
7929;SDS011;4010;42.698;23.124;2023-12-20T06:42:11;8.68;;;5.07;;
7929;SDS011;4010;42.698;23.124;2023-12-20T06:44:38;9.00;;;6.03;;
7929;SDS011;4010;42.698;23.124;2023-12-20T06:47:05;15.55;;;7.20;;
7929;SDS011;4010;42.698;23.124;2023-12-20T06:49:31;12.43;;;6.35;;
7929;SDS011;4010;42.698;23.124;2023-12-20T06:51:58;9.65;;;5.97;;
7929;SDS011;4010;42.698;23.124;2023-12-20T06:54:25;14.00;;;7.18;;
7929;SDS011;4010;42.698;23.124;2023-12-20T06:56:53;35.08;;;14.15;;
7929;SDS011;4010;42.698;23.124;2023-12-20T06:59:20;25.17;;;8.90;;
7929;SDS011;4010;42.698;23.124;2023-12-20T07:01:47;15.70;;;7.97;;
7929;SDS011;4010;42.698;23.124;2023-12-20T07:04:15;20.83;;;9.38;;
7929;SDS011;4010;42.698;23.124;2023-12-20T07:06:45;23.38;;;9.68;;
7929;SDS011;4010;42.698;23.124;2023-12-20T07:09:12;15.25;;;7.57;;
7929;SDS011;4010;42.698;23.124;2023-12-20T07:11:40;17.58;;;9.90;;
7929;SDS011;4010;42.698;23.124;2023-12-20T07:14:08;18.50;;;9.02;;
7929;SDS011;4010;42.698;23.124;2023-12-20T07:16:34;15.75;;;8.93;;
7929;SDS011;4010;42.698;23.124;2023-12-20T07:19:01;17.73;;;9.23;;
7929;SDS011;4010;42.698;23.124;2023-12-20T07:21:28;17.38;;;8.80;;
7929;SDS011;4010;42.698;23.124;2023-12-20T07:23:55;23.30;;;10.65;;
7929;SDS011;4010;42.698;23.124;2023-12-20T07:26:21;17.35;;;10.73;;
7929;SDS011;4010;42.698;23.124;2023-12-20T07:28:48;24.98;;;11.57;;
7929;SDS011;4010;42.698;23.124;2023-12-20T07:31:16;23.67;;;11.90;;
7929;SDS011;4010;42.698;23.124;2023-12-20T07:33:43;30.63;;;12.90;;
7929;SDS011;4010;42.698;23.124;2023-12-20T07:36:10;21.75;;;10.70;;
7929;SDS011;4010;42.698;23.124;2023-12-20T07:38:37;48.67;;;23.50;;
7929;SDS011;4010;42.698;23.124;2023-12-20T07:41:04;36.50;;;15.98;;
7929;SDS011;4010;42.698;23.124;2023-12-20T07:43:31;29.02;;;14.65;;
7929;SDS011;4010;42.698;23.124;2023-12-20T07:46:01;169.40;;;75.85;;
7929;SDS011;4010;42.698;23.124;2023-12-20T07:48:32;89.47;;;43.80;;
7929;SDS011;4010;42.698;23.124;2023-12-20T07:50:58;64.80;;;32.88;;
7929;SDS011;4010;42.698;23.124;2023-12-20T07:53:25;29.15;;;15.10;;
7929;SDS011;4010;42.698;23.124;2023-12-20T07:55:52;22.55;;;11.60;;
7929;SDS011;4010;42.698;23.124;2023-12-20T07:58:19;15.32;;;10.57;;
7929;SDS011;4010;42.698;23.124;2023-12-20T08:00:46;23.42;;;11.85;;
7929;SDS011;4010;42.698;23.124;2023-12-20T08:03:12;20.93;;;11.90;;
7929;SDS011;4010;42.698;23.124;2023-12-20T08:05:41;54.90;;;29.57;;
7929;SDS011;4010;42.698;23.124;2023-12-20T08:08:07;19.23;;;10.97;;
7929;SDS011;4010;42.698;23.124;2023-12-20T08:10:35;20.67;;;12.57;;
7929;SDS011;4010;42.698;23.124;2023-12-20T08:13:02;16.77;;;10.07;;
7929;SDS011;4010;42.698;23.124;2023-12-20T08:15:27;18.03;;;11.50;;
7929;SDS011;4010;42.698;23.124;2023-12-20T08:17:54;18.90;;;11.57;;
7929;SDS011;4010;42.698;23.124;2023-12-20T08:20:21;19.47;;;11.07;;
7929;SDS011;4010;42.698;23.124;2023-12-20T08:22:49;16.90;;;11.37;;
7929;SDS011;4010;42.698;23.124;2023-12-20T08:25:16;19.33;;;12.47;;
7929;SDS011;4010;42.698;23.124;2023-12-20T08:27:42;17.40;;;12.53;;
7929;SDS011;4010;42.698;23.124;2023-12-20T08:30:09;19.47;;;13.00;;
7929;SDS011;4010;42.698;23.124;2023-12-20T08:32:37;22.87;;;14.33;;
7929;SDS011;4010;42.698;23.124;2023-12-20T08:35:04;22.03;;;13.60;;
7929;SDS011;4010;42.698;23.124;2023-12-20T08:37:31;18.23;;;12.90;;
7929;SDS011;4010;42.698;23.124;2023-12-20T08:39:59;22.27;;;14.17;;
7929;SDS011;4010;42.698;23.124;2023-12-20T08:42:26;17.77;;;12.40;;
7929;SDS011;4010;42.698;23.124;2023-12-20T08:44:56;18.67;;;13.00;;
7929;SDS011;4010;42.698;23.124;2023-12-20T08:47:23;23.40;;;14.33;;
7929;SDS011;4010;42.698;23.124;2023-12-20T08:49:50;24.93;;;15.30;;
7929;SDS011;4010;42.698;23.124;2023-12-20T08:52:17;22.50;;;15.07;;
7929;SDS011;4010;42.698;23.124;2023-12-20T08:54:44;20.03;;;14.87;;
7929;SDS011;4010;42.698;23.124;2023-12-20T08:57:12;25.47;;;15.63;;
7929;SDS011;4010;42.698;23.124;2023-12-20T08:59:39;23.47;;;15.00;;
7929;SDS011;4010;42.698;23.124;2023-12-20T09:02:05;24.20;;;16.50;;
7929;SDS011;4010;42.698;23.124;2023-12-20T09:04:32;27.70;;;19.57;;
7929;SDS011;4010;42.698;23.124;2023-12-20T09:06:59;23.93;;;15.90;;
7929;SDS011;4010;42.698;23.124;2023-12-20T09:09:27;23.03;;;14.97;;
7929;SDS011;4010;42.698;23.124;2023-12-20T09:11:53;18.90;;;14.63;;
7929;SDS011;4010;42.698;23.124;2023-12-20T09:14:22;21.37;;;14.00;;
7929;SDS011;4010;42.698;23.124;2023-12-20T09:16:49;23.50;;;17.53;;
7929;SDS011;4010;42.698;23.124;2023-12-20T09:19:16;28.80;;;19.17;;
7929;SDS011;4010;42.698;23.124;2023-12-20T09:21:43;24.87;;;15.40;;
7929;SDS011;4010;42.698;23.124;2023-12-20T09:24:10;25.47;;;17.13;;
7929;SDS011;4010;42.698;23.124;2023-12-20T09:26:36;30.27;;;20.30;;
7929;SDS011;4010;42.698;23.124;2023-12-20T09:29:04;28.93;;;19.13;;
7929;SDS011;4010;42.698;23.124;2023-12-20T09:31:35;26.37;;;19.63;;
7929;SDS011;4010;42.698;23.124;2023-12-20T09:34:02;30.50;;;20.30;;
7929;SDS011;4010;42.698;23.124;2023-12-20T09:36:29;31.70;;;19.97;;
7929;SDS011;4010;42.698;23.124;2023-12-20T09:39:00;24.87;;;17.73;;
7929;SDS011;4010;42.698;23.124;2023-12-20T09:41:27;27.30;;;18.40;;
7929;SDS011;4010;42.698;23.124;2023-12-20T09:43:58;25.37;;;17.47;;
7929;SDS011;4010;42.698;23.124;2023-12-20T09:46:26;28.80;;;17.90;;
7929;SDS011;4010;42.698;23.124;2023-12-20T09:48:58;28.20;;;19.83;;
7929;SDS011;4010;42.698;23.124;2023-12-20T09:51:26;26.23;;;18.63;;
7929;SDS011;4010;42.698;23.124;2023-12-20T09:53:55;32.93;;;20.27;;
7929;SDS011;4010;42.698;23.124;2023-12-20T09:56:23;38.87;;;22.50;;
7929;SDS011;4010;42.698;23.124;2023-12-20T09:58:51;41.27;;;23.80;;
7929;SDS011;4010;42.698;23.124;2023-12-20T10:01:19;35.90;;;23.00;;
7929;SDS011;4010;42.698;23.124;2023-12-20T10:03:47;36.63;;;23.23;;
7929;SDS011;4010;42.698;23.124;2023-12-20T10:06:15;35.17;;;21.47;;
7929;SDS011;4010;42.698;23.124;2023-12-20T10:08:42;37.20;;;24.27;;
7929;SDS011;4010;42.698;23.124;2023-12-20T10:11:09;29.70;;;20.07;;
7929;SDS011;4010;42.698;23.124;2023-12-20T10:13:39;21.67;;;16.10;;
7929;SDS011;4010;42.698;23.124;2023-12-20T10:16:06;33.70;;;20.37;;
7929;SDS011;4010;42.698;23.124;2023-12-20T10:18:33;28.63;;;18.30;;
7929;SDS011;4010;42.698;23.124;2023-12-20T10:21:01;23.97;;;15.60;;
7929;SDS011;4010;42.698;23.124;2023-12-20T10:23:29;21.23;;;13.70;;
7929;SDS011;4010;42.698;23.124;2023-12-20T10:25:57;19.77;;;12.80;;
7929;SDS011;4010;42.698;23.124;2023-12-20T10:28:24;18.60;;;12.27;;
7929;SDS011;4010;42.698;23.124;2023-12-20T10:30:52;15.80;;;11.20;;
7929;SDS011;4010;42.698;23.124;2023-12-20T10:33:23;19.30;;;12.13;;
7929;SDS011;4010;42.698;23.124;2023-12-20T10:35:51;19.00;;;12.97;;
7929;SDS011;4010;42.698;23.124;2023-12-20T10:38:18;21.57;;;14.27;;
7929;SDS011;4010;42.698;23.124;2023-12-20T10:40:47;25.07;;;16.17;;
7929;SDS011;4010;42.698;23.124;2023-12-20T10:43:15;32.37;;;19.27;;
7929;SDS011;4010;42.698;23.124;2023-12-20T10:45:42;34.07;;;20.40;;
7929;SDS011;4010;42.698;23.124;2023-12-20T10:48:09;21.00;;;14.50;;
7929;SDS011;4010;42.698;23.124;2023-12-20T10:50:37;20.03;;;13.60;;
7929;SDS011;4010;42.698;23.124;2023-12-20T10:53:05;18.43;;;13.37;;
7929;SDS011;4010;42.698;23.124;2023-12-20T10:55:33;20.23;;;13.67;;
7929;SDS011;4010;42.698;23.124;2023-12-20T10:58:01;21.77;;;14.13;;
7929;SDS011;4010;42.698;23.124;2023-12-20T11:00:33;22.17;;;15.40;;
7929;SDS011;4010;42.698;23.124;2023-12-20T11:03:05;23.33;;;14.90;;
7929;SDS011;4010;42.698;23.124;2023-12-20T11:05:36;22.77;;;15.33;;
7929;SDS011;4010;42.698;23.124;2023-12-20T11:08:09;20.87;;;15.20;;
7929;SDS011;4010;42.698;23.124;2023-12-20T11:10:40;23.87;;;15.40;;
7929;SDS011;4010;42.698;23.124;2023-12-20T11:13:17;20.03;;;13.60;;
7929;SDS011;4010;42.698;23.124;2023-12-20T11:15:48;20.37;;;14.03;;
7929;SDS011;4010;42.698;23.124;2023-12-20T11:18:15;20.23;;;12.90;;
7929;SDS011;4010;42.698;23.124;2023-12-20T11:20:42;16.77;;;11.93;;
7929;SDS011;4010;42.698;23.124;2023-12-20T11:23:09;16.67;;;10.70;;
7929;SDS011;4010;42.698;23.124;2023-12-20T11:25:46;21.33;;;13.77;;
7929;SDS011;4010;42.698;23.124;2023-12-20T11:28:13;19.53;;;13.67;;
7929;SDS011;4010;42.698;23.124;2023-12-20T11:30:42;21.23;;;13.60;;
7929;SDS011;4010;42.698;23.124;2023-12-20T11:33:12;20.77;;;14.03;;
7929;SDS011;4010;42.698;23.124;2023-12-20T11:35:39;25.80;;;16.50;;
7929;SDS011;4010;42.698;23.124;2023-12-20T11:38:07;30.17;;;17.00;;
7929;SDS011;4010;42.698;23.124;2023-12-20T11:40:34;21.77;;;14.90;;
7929;SDS011;4010;42.698;23.124;2023-12-20T11:43:02;22.37;;;15.23;;
7929;SDS011;4010;42.698;23.124;2023-12-20T11:45:29;29.20;;;17.93;;
7929;SDS011;4010;42.698;23.124;2023-12-20T11:47:58;36.20;;;21.40;;
7929;SDS011;4010;42.698;23.124;2023-12-20T11:50:25;22.57;;;15.13;;
7929;SDS011;4010;42.698;23.124;2023-12-20T11:52:53;26.03;;;16.07;;
7929;SDS011;4010;42.698;23.124;2023-12-20T11:55:20;25.70;;;16.50;;
7929;SDS011;4010;42.698;23.124;2023-12-20T11:57:47;27.23;;;16.23;;
7929;SDS011;4010;42.698;23.124;2023-12-20T12:00:14;29.27;;;17.80;;
7929;SDS011;4010;42.698;23.124;2023-12-20T12:02:41;25.40;;;16.57;;
7929;SDS011;4010;42.698;23.124;2023-12-20T12:05:09;23.53;;;15.60;;
7929;SDS011;4010;42.698;23.124;2023-12-20T12:07:36;28.40;;;17.73;;
7929;SDS011;4010;42.698;23.124;2023-12-20T12:10:03;20.90;;;14.60;;
7929;SDS011;4010;42.698;23.124;2023-12-20T12:12:30;22.37;;;15.03;;
7929;SDS011;4010;42.698;23.124;2023-12-20T12:14:57;24.17;;;16.53;;
7929;SDS011;4010;42.698;23.124;2023-12-20T12:17:24;25.70;;;15.40;;
7929;SDS011;4010;42.698;23.124;2023-12-20T12:19:52;24.17;;;14.70;;
7929;SDS011;4010;42.698;23.124;2023-12-20T12:22:30;23.07;;;15.87;;
7929;SDS011;4010;42.698;23.124;2023-12-20T12:24:58;22.63;;;16.20;;
7929;SDS011;4010;42.698;23.124;2023-12-20T12:27:35;28.10;;;16.07;;
7929;SDS011;4010;42.698;23.124;2023-12-20T12:30:03;26.27;;;15.70;;
7929;SDS011;4010;42.698;23.124;2023-12-20T12:32:32;24.90;;;16.13;;
7929;SDS011;4010;42.698;23.124;2023-12-20T12:34:59;63.37;;;38.00;;
7929;SDS011;4010;42.698;23.124;2023-12-20T12:37:26;36.33;;;23.50;;
7929;SDS011;4010;42.698;23.124;2023-12-20T12:39:54;57.80;;;40.30;;
7929;SDS011;4010;42.698;23.124;2023-12-20T12:42:21;33.43;;;24.90;;
7929;SDS011;4010;42.698;23.124;2023-12-20T12:44:51;29.63;;;19.30;;
7929;SDS011;4010;42.698;23.124;2023-12-20T12:47:17;21.70;;;15.60;;
7929;SDS011;4010;42.698;23.124;2023-12-20T12:49:44;22.53;;;13.63;;
7929;SDS011;4010;42.698;23.124;2023-12-20T12:52:11;21.43;;;13.30;;
7929;SDS011;4010;42.698;23.124;2023-12-20T12:54:38;20.23;;;12.93;;
7929;SDS011;4010;42.698;23.124;2023-12-20T12:57:06;22.13;;;14.93;;
7929;SDS011;4010;42.698;23.124;2023-12-20T12:59:33;24.73;;;15.93;;
7929;SDS011;4010;42.698;23.124;2023-12-20T13:02:00;38.20;;;27.57;;
7929;SDS011;4010;42.698;23.124;2023-12-20T13:04:26;23.73;;;18.20;;
7929;SDS011;4010;42.698;23.124;2023-12-20T13:06:53;240.27;;;92.33;;
7929;SDS011;4010;42.698;23.124;2023-12-20T13:09:20;46.03;;;26.33;;
7929;SDS011;4010;42.698;23.124;2023-12-20T13:11:47;53.93;;;30.07;;
7929;SDS011;4010;42.698;23.124;2023-12-20T13:14:15;32.13;;;21.40;;
7929;SDS011;4010;42.698;23.124;2023-12-20T13:16:42;62.83;;;38.47;;
7929;SDS011;4010;42.698;23.124;2023-12-20T13:19:10;34.23;;;21.67;;
7929;SDS011;4010;42.698;23.124;2023-12-20T13:21:36;76.37;;;47.90;;
7929;SDS011;4010;42.698;23.124;2023-12-20T13:24:04;33.27;;;21.17;;
7929;SDS011;4010;42.698;23.124;2023-12-20T13:26:31;57.17;;;33.70;;
7929;SDS011;4010;42.698;23.124;2023-12-20T13:28:58;35.17;;;22.20;;
7929;SDS011;4010;42.698;23.124;2023-12-20T13:31:26;35.30;;;21.27;;
7929;SDS011;4010;42.698;23.124;2023-12-20T13:33:53;33.90;;;22.80;;
7929;SDS011;4010;42.698;23.124;2023-12-20T13:36:20;36.30;;;21.10;;
7929;SDS011;4010;42.698;23.124;2023-12-20T13:38:46;33.83;;;21.97;;
7929;SDS011;4010;42.698;23.124;2023-12-20T13:41:13;33.47;;;22.03;;
7929;SDS011;4010;42.698;23.124;2023-12-20T13:43:40;38.40;;;23.80;;
7929;SDS011;4010;42.698;23.124;2023-12-20T13:46:07;40.63;;;25.10;;
7929;SDS011;4010;42.698;23.124;2023-12-20T13:48:36;44.30;;;27.47;;
7929;SDS011;4010;42.698;23.124;2023-12-20T13:51:03;45.57;;;27.90;;
7929;SDS011;4010;42.698;23.124;2023-12-20T13:53:31;47.13;;;30.23;;
7929;SDS011;4010;42.698;23.124;2023-12-20T13:55:57;44.83;;;28.00;;
7929;SDS011;4010;42.698;23.124;2023-12-20T13:58:25;72.00;;;42.53;;
7929;SDS011;4010;42.698;23.124;2023-12-20T14:00:51;43.50;;;26.40;;
7929;SDS011;4010;42.698;23.124;2023-12-20T14:03:18;43.47;;;28.87;;
7929;SDS011;4010;42.698;23.124;2023-12-20T14:05:47;58.23;;;34.97;;
7929;SDS011;4010;42.698;23.124;2023-12-20T14:08:14;57.53;;;36.63;;
7929;SDS011;4010;42.698;23.124;2023-12-20T14:10:40;57.20;;;36.03;;
7929;SDS011;4010;42.698;23.124;2023-12-20T14:13:07;75.37;;;42.47;;
7929;SDS011;4010;42.698;23.124;2023-12-20T14:15:34;62.77;;;36.60;;
7929;SDS011;4010;42.698;23.124;2023-12-20T14:18:02;76.60;;;45.70;;
7929;SDS011;4010;42.698;23.124;2023-12-20T14:20:31;69.17;;;39.63;;
7929;SDS011;4010;42.698;23.124;2023-12-20T14:23:00;64.47;;;37.57;;
7929;SDS011;4010;42.698;23.124;2023-12-20T14:25:27;89.87;;;51.63;;
7929;SDS011;4010;42.698;23.124;2023-12-20T14:27:54;73.50;;;42.40;;
7929;SDS011;4010;42.698;23.124;2023-12-20T14:30:22;72.53;;;40.13;;
7929;SDS011;4010;42.698;23.124;2023-12-20T14:32:49;73.13;;;40.50;;
7929;SDS011;4010;42.698;23.124;2023-12-20T14:35:16;72.07;;;42.37;;
7929;SDS011;4010;42.698;23.124;2023-12-20T14:37:44;66.87;;;38.50;;
7929;SDS011;4010;42.698;23.124;2023-12-20T14:40:12;78.43;;;44.83;;
7929;SDS011;4010;42.698;23.124;2023-12-20T14:42:41;80.57;;;44.73;;
7929;SDS011;4010;42.698;23.124;2023-12-20T14:45:08;72.50;;;43.07;;